Time;durP1;ratioP1;P1;durP2;ratioP2;P2;SDS_P1;SDS_P2;PMS_P1;PMS_P2;Temp;Humidity;BMP_temperature;BMP_pressure;BME280_temperature;BME280_humidity;BME280_pressure;Samples;Min_cycle;Max_cycle;Signal;HPM_P1;HPM_P2
2021/11/24 00:04:51;;;;;;;;;;;;;;;4.41;100.00;95419.28;10402037;28;20526;-75
2021/11/24 00:09:51;;;;;;;;;;;;;;;4.54;100.00;95423.72;10400829;28;19964;-74
2021/11/24 00:14:52;;;;;;;;;;;;;;;4.84;100.00;95423.81;10385124;28;19914;-81
2021/11/24 00:19:52;;;;;;;;;;;;;;;5.00;100.00;95424.31;10400910;28;20461;-81
2021/11/24 00:24:52;;;;;;;;;;;;;;;5.09;100.00;95420.31;10399800;28;19921;-75
2021/11/24 00:29:54;;;;;;;;;;;;;;;5.30;100.00;95419.03;10384105;28;20421;-76
2021/11/24 00:34:55;;;;;;;;;;;;;;;5.49;100.00;95425.19;10399923;28;20350;-75
2021/11/24 00:39:55;;;;;;;;;;;;;;;5.51;100.00;95428.44;10383282;28;19917;-74
2021/11/24 00:44:56;;;;;;;;;;;;;;;5.56;100.00;95415.25;10383852;28;20395;-75
2021/11/24 00:49:56;;;;;;;;;;;;;;;5.56;100.00;95425.91;10401544;28;20007;-75
2021/11/24 00:54:59;;;;;;;;;;;;;;;5.66;100.00;95425.38;10383211;28;20003;-74
2021/11/24 01:00:00;;;;;;;;;;;;;;;5.63;100.00;95426.63;10391657;28;19965;-79
2021/11/24 01:05:00;;;;;;;;;;;;;;;5.69;100.00;95418.78;10407931;28;20367;-74
2021/11/24 01:10:00;;;;;;;;;;;;;;;5.68;100.00;95417.16;10408824;28;20357;-74
2021/11/24 01:15:01;;;;;;;;;;;;;;;5.61;100.00;95418.06;10391006;28;19944;-75
2021/11/24 01:20:01;;;;;;;;;;;;;;;5.28;100.00;95411.28;10408531;28;19917;-74
2021/11/24 01:25:02;;;;;;;;;;;;;;;5.10;100.00;95413.94;10408880;28;19923;-74
2021/11/24 01:30:03;;;;;;;;;;;;;;;4.94;100.00;95412.69;10407233;28;19921;-79
2021/11/24 01:35:05;;;;;;;;;;;;;;;5.07;100.00;95419.72;10406942;28;20461;-80
2021/11/24 01:40:06;;;;;;;;;;;;;;;5.04;100.00;95410.31;10406527;28;19921;-79
2021/11/24 01:45:06;;;;;;;;;;;;;;;5.05;100.00;95403.13;10390078;28;20326;-79
2021/11/24 01:50:07;;;;;;;;;;;;;;;5.11;100.00;95403.06;10407164;28;19913;-76
2021/11/24 01:55:09;;;;;;;;;;;;;;;5.23;100.00;95407.66;10405460;28;20316;-74
2021/11/24 02:00:09;;;;;;;;;;;;;;;4.97;100.00;95401.59;10388963;28;19920;-75
2021/11/24 02:05:10;;;;;;;;;;;;;;;4.76;100.00;95402.84;10389081;28;19913;-76
2021/11/24 02:10:10;;;;;;;;;;;;;;;4.49;100.00;95400.38;10405554;28;20012;-71
2021/11/24 02:15:10;;;;;;;;;;;;;;;4.30;100.00;95401.38;10388465;28;20454;-77
2021/11/24 02:20:31;;;;;;;;;;;;;;;4.26;100.00;95390.38;10408717;28;20360;-74
2021/11/24 02:25:31;;;;;;;;;;;;;;;4.27;100.00;95390.16;10421687;28;19967;-75
2021/11/24 02:30:33;;;;;;;;;;;;;;;4.19;100.00;95394.94;10428720;28;20070;-78
2021/11/24 02:35:34;;;;;;;;;;;;;;;4.19;100.00;95394.94;10428509;28;19925;-79
2021/11/24 02:40:35;;;;;;;;;;;;;;;4.16;100.00;95393.50;10428645;28;20365;-81
2021/11/24 02:45:35;;;;;;;;;;;;;;;4.26;100.00;95398.34;10445059;28;19917;-80
2021/11/24 02:50:36;;;;;;;;;;;;;;;4.32;100.00;95394.81;10428681;28;19913;-79
2021/11/24 02:55:36;;;;;;;;;;;;;;;4.30;100.00;95393.38;10428369;28;19991;-74
2021/11/24 03:00:36;;;;;;;;;;;;;;;4.49;100.00;95394.25;10434698;28;19917;-74
2021/11/24 03:05:37;;;;;;;;;;;;;;;4.46;100.00;95395.50;10428990;28;19918;-82
2021/11/24 03:10:37;;;;;;;;;;;;;;;4.74;100.00;95399.56;10406635;28;20287;-77
2021/11/24 03:15:38;;;;;;;;;;;;;;;4.89;100.00;95405.34;10386146;28;20533;-72
2021/11/24 03:20:38;;;;;;;;;;;;;;;4.55;100.00;95410.19;10385497;28;20346;-75
2021/11/24 03:25:39;;;;;;;;;;;;;;;4.39;100.00;95408.06;10402563;28;20368;-76
2021/11/24 03:30:39;;;;;;;;;;;;;;;4.42;100.00;95404.97;10402156;28;19921;-73
2021/11/24 03:35:40;;;;;;;;;;;;;;;4.41;100.00;95414.81;10401532;28;19994;-74
2021/11/24 03:40:40;;;;;;;;;;;;;;;4.25;100.00;95410.81;10401879;28;19922;-73
2021/11/24 03:45:41;;;;;;;;;;;;;;;4.24;100.00;95416.34;10384974;28;19928;-75
2021/11/24 03:50:41;;;;;;;;;;;;;;;4.27;100.00;95424.75;10384930;28;19913;-73
2021/11/24 03:55:41;;;;;;;;;;;;;;;4.17;100.00;95427.06;10385438;28;20379;-75
2021/11/24 04:00:42;;;;;;;;;;;;;;;4.23;100.00;95422.72;10403178;28;19921;-75
2021/11/24 04:05:42;;;;;;;;;;;;;;;4.26;100.00;95424.94;10402830;28;19919;-73
2021/11/24 04:10:42;;;;;;;;;;;;;;;4.21;100.00;95432.75;10368442;28;19913;-72
2021/11/24 04:15:44;;;;;;;;;;;;;;;4.13;100.00;95438.34;10402585;28;19917;-80
2021/11/24 04:20:44;;;;;;;;;;;;;;;4.21;100.00;95443.41;10383916;28;20390;-77
2021/11/24 04:25:45;;;;;;;;;;;;;;;4.11;100.00;95450.00;10400532;28;19913;-76
2021/11/24 04:30:45;;;;;;;;;;;;;;;4.10;100.00;95445.72;10424331;28;19917;-74
2021/11/24 04:35:46;;;;;;;;;;;;;;;4.17;100.00;95450.19;10442675;28;19933;-75
2021/11/24 04:40:46;;;;;;;;;;;;;;;4.20;100.00;95455.06;10425733;28;19928;-78
2021/11/24 04:45:48;;;;;;;;;;;;;;;4.18;100.00;95460.59;10442946;28;19916;-74
2021/11/24 04:50:48;;;;;;;;;;;;;;;4.05;100.00;95458.84;10431669;28;20335;-75
2021/11/24 04:55:49;;;;;;;;;;;;;;;4.15;100.00;95469.03;10407774;28;19912;-74
2021/11/24 05:00:49;;;;;;;;;;;;;;;4.13;100.00;95468.44;10424069;28;20015;-74
2021/11/24 05:05:49;;;;;;;;;;;;;;;4.07;100.00;95471.94;10441787;28;19916;-76
2021/11/24 05:10:50;;;;;;;;;;;;;;;4.12;100.00;95469.47;10423641;28;20397;-78
2021/11/24 05:15:53;;;;;;;;;;;;;;;4.07;100.00;95479.91;10403595;28;20434;-76
2021/11/24 05:21:01;;;;;;;;;;;;;;;4.08;100.00;95481.56;10401667;28;19921;-76
2021/11/24 05:26:01;;;;;;;;;;;;;;;4.11;100.00;95486.44;10397427;28;19913;-76
2021/11/24 05:31:02;;;;;;;;;;;;;;;4.06;100.00;95487.09;10402690;28;19991;-73
2021/11/24 05:36:03;;;;;;;;;;;;;;;4.14;100.00;95482.53;10419649;28;20067;-82
2021/11/24 05:41:04;;;;;;;;;;;;;;;4.16;100.00;95491.94;10442438;28;19917;-79
2021/11/24 05:46:28;;;;;;;;;;;;;;;4.24;100.00;95493.53;10420871;28;20259;-77
2021/11/24 05:51:28;;;;;;;;;;;;;;;4.35;100.00;95498.16;10391833;28;19913;-79
2021/11/24 05:56:28;;;;;;;;;;;;;;;4.35;100.00;95497.34;10409221;28;19909;-78
2021/11/24 06:01:29;;;;;;;;;;;;;;;4.42;100.00;95506.94;10390492;28;19921;-80
2021/11/24 06:06:30;;;;;;;;;;;;;;;4.52;100.00;95505.63;10390937;28;19913;-77
2021/11/24 06:11:31;;;;;;;;;;;;;;;4.53;100.00;95512.59;10408724;28;19913;-79
2021/11/24 06:16:31;;;;;;;;;;;;;;;4.54;100.00;95506.22;10390269;28;20351;-78
2021/11/24 06:21:32;;;;;;;;;;;;;;;4.71;100.00;95519.81;10391613;28;20367;-77
2021/11/24 06:26:32;;;;;;;;;;;;;;;4.72;100.00;95521.47;10404213;28;19924;-79
2021/11/24 06:31:32;;;;;;;;;;;;;;;4.84;100.00;95535.69;10408625;28;19917;-78
2021/11/24 06:36:32;;;;;;;;;;;;;;;4.96;100.00;95533.94;10404400;28;19926;-78
2021/11/24 06:41:33;;;;;;;;;;;;;;;4.85;100.00;95544.50;10390828;28;19975;-78
2021/11/24 06:46:35;;;;;;;;;;;;;;;4.84;100.00;95548.19;10420304;28;19928;-79
2021/11/24 06:51:36;;;;;;;;;;;;;;;4.87;100.00;95547.75;10429537;28;19920;-79
2021/11/24 06:56:37;;;;;;;;;;;;;;;5.01;100.00;95543.13;10414911;28;19961;-79
2021/11/24 07:01:37;;;;;;;;;;;;;;;4.95;100.00;95550.97;10409372;28;20007;-76
2021/11/24 07:06:37;;;;;;;;;;;;;;;4.95;100.00;95548.31;10401326;28;19967;-75
2021/11/24 07:11:38;;;;;;;;;;;;;;;5.02;100.00;95548.25;10397249;28;20375;-75
2021/11/24 07:16:38;;;;;;;;;;;;;;;5.09;100.00;95556.19;10407637;28;19921;-76
2021/11/24 07:21:40;;;;;;;;;;;;;;;5.14;100.00;95551.03;10392499;28;19948;-78
2021/11/24 07:26:41;;;;;;;;;;;;;;;5.14;100.00;95556.34;10388379;28;19913;-72
2021/11/24 07:31:41;;;;;;;;;;;;;;;5.18;100.00;95549.56;10394087;28;19917;-78
2021/11/24 07:36:42;;;;;;;;;;;;;;;5.40;100.00;95560.63;10426530;28;20281;-78
2021/11/24 07:41:42;;;;;;;;;;;;;;;5.33;100.00;95561.72;10427029;28;19923;-81
2021/11/24 07:46:42;;;;;;;;;;;;;;;5.42;100.00;95553.22;10436686;28;19921;-79
2021/11/24 07:51:43;;;;;;;;;;;;;;;5.37;100.00;95549.59;10385852;28;19935;-79
2021/11/24 07:56:43;;;;;;;;;;;;;;;5.77;100.00;95551.84;10401191;28;20031;-78
2021/11/24 08:01:44;;;;;;;;;;;;;;;6.07;100.00;95553.78;10527704;22;19925;-77
2021/11/24 08:06:45;;;;;;;;;;;;;;;6.17;100.00;95559.41;10426566;28;19920;-78
2021/11/24 08:11:45;;;;;;;;;;;;;;;6.12;100.00;95551.25;10419624;28;20291;-74
2021/11/24 08:16:45;;;;;;;;;;;;;;;6.24;100.00;95548.66;10384263;28;20387;-75
2021/11/24 08:21:45;;;;;;;;;;;;;;;6.41;100.00;95554.97;10402314;28;19917;-74
2021/11/24 08:26:46;;;;;;;;;;;;;;;6.56;100.00;95554.56;10384204;28;19924;-73
2021/11/24 08:31:46;;;;;;;;;;;;;;;6.47;100.00;95554.09;10400289;28;19913;-75
2021/11/24 08:36:47;;;;;;;;;;;;;;;6.69;100.00;95550.09;10384045;28;19924;-78
2021/11/24 08:41:48;;;;;;;;;;;;;;;6.78;100.00;95557.53;10383094;28;19968;-73
2021/11/24 08:46:48;;;;;;;;;;;;;;;6.80;100.00;95555.44;10400178;28;20004;-74
2021/11/24 08:51:48;;;;;;;;;;;;;;;6.90;100.00;95549.53;10384059;28;20000;-74
2021/11/24 08:56:49;;;;;;;;;;;;;;;6.97;100.00;95555.59;10399679;28;19917;-79
2021/11/24 09:01:49;;;;;;;;;;;;;;;6.88;100.00;95550.81;10398982;28;20008;-75
2021/11/24 09:06:50;;;;;;;;;;;;;;;7.11;100.00;95544.69;10399472;28;19971;-78
2021/11/24 09:11:50;;;;;;;;;;;;;;;7.15;100.00;95546.66;10400265;28;19913;-74
2021/11/24 09:16:50;;;;;;;;;;;;;;;7.23;100.00;95544.69;10382283;28;20003;-74
2021/11/24 09:21:51;;;;;;;;;;;;;;;7.33;100.00;95545.75;10407607;28;19928;-75
2021/11/24 09:26:58;;;;;;;;;;;;;;;7.14;100.00;95536.22;10390382;28;19916;-76
2021/11/24 09:32:03;;;;;;;;;;;;;;;7.08;100.00;95539.81;10412934;28;19921;-78
2021/11/24 09:37:04;;;;;;;;;;;;;;;7.23;100.00;95536.66;10408047;28;20016;-77
2021/11/24 09:42:04;;;;;;;;;;;;;;;7.17;100.00;95536.56;10389269;28;19923;-74
2021/11/24 09:47:07;;;;;;;;;;;;;;;7.05;100.00;95532.25;10406906;28;19975;-77
2021/11/24 09:52:07;;;;;;;;;;;;;;;7.09;100.00;95517.38;10406029;28;19955;-74
2021/11/24 09:57:08;;;;;;;;;;;;;;;7.22;100.00;95516.34;10388751;28;19920;-78
2021/11/24 10:02:11;;;;;;;;;;;;;;;7.12;100.00;95516.94;10406445;28;19925;-74
2021/11/24 10:07:12;;;;;;;;;;;;;;;7.07;100.00;95514.13;10405159;28;20513;-75
2021/11/24 10:12:13;;;;;;;;;;;;;;;6.76;100.00;95514.19;10406124;28;19913;-74
2021/11/24 10:17:20;;;;;;;;;;;;;;;6.71;100.00;95500.72;10404983;28;19920;-75
2021/11/24 10:22:21;;;;;;;;;;;;;;;6.62;100.00;95500.22;10421217;28;19955;-81
2021/11/24 10:27:32;;;;;;;;;;;;;;;6.54;100.00;95505.91;10429333;28;20019;-75
2021/11/24 10:32:32;;;;;;;;;;;;;;;6.59;100.00;95491.88;10430970;28;19916;-82
2021/11/24 10:37:33;;;;;;;;;;;;;;;6.50;100.00;95499.38;10429708;28;19917;-80
2021/11/24 10:42:33;;;;;;;;;;;;;;;6.27;100.00;95500.94;10428110;28;19967;-76
2021/11/24 10:47:34;;;;;;;;;;;;;;;6.05;100.00;95489.94;10429231;28;19913;-79
2021/11/24 10:52:38;;;;;;;;;;;;;;;5.90;100.00;95479.66;10445035;28;19967;-80
2021/11/24 10:57:43;;;;;;;;;;;;;;;5.97;100.00;95474.22;10445577;28;20325;-78
2021/11/24 11:02:45;;;;;;;;;;;;;;;6.16;100.00;95475.03;10427745;28;20012;-77
2021/11/24 11:07:48;;;;;;;;;;;;;;;6.20;100.00;95473.53;10446022;28;19920;-77
2021/11/24 11:12:52;;;;;;;;;;;;;;;6.06;100.00;95472.91;10428507;28;19912;-79
2021/11/24 11:18:25;;;;;;;;;;;;;;;6.20;100.00;95467.41;10427118;28;19928;-78
2021/11/24 11:23:30;;;;;;;;;;;;;;;6.40;100.00;95448.41;10426225;28;19916;-76
2021/11/24 11:28:34;;;;;;;;;;;;;;;6.69;100.00;95454.72;10427192;28;19963;-76
2021/11/24 11:33:36;;;;;;;;;;;;;;;6.76;100.00;95447.41;10410054;28;20004;-76
2021/11/24 11:38:39;;;;;;;;;;;;;;;6.96;100.00;95436.41;10426190;28;19962;-75
2021/11/24 11:43:41;;;;;;;;;;;;;;;7.10;100.00;95460.19;10425804;28;19921;-75
2021/11/24 11:48:45;;;;;;;;;;;;;;;6.92;100.00;95439.75;10426340;28;19921;-75
2021/11/24 11:53:45;;;;;;;;;;;;;;;6.80;100.00;95443.22;10425808;28;19997;-76
2021/11/24 11:58:50;;;;;;;;;;;;;;;6.74;100.00;95443.34;10425611;28;20423;-79
2021/11/24 12:03:54;;;;;;;;;;;;;;;6.57;100.00;95445.88;10442571;28;20442;-81
2021/11/24 12:09:04;;;;;;;;;;;;;;;6.51;100.00;95439.59;10425988;28;19913;-76
2021/11/24 12:14:24;;;;;;;;;;;;;;;6.26;100.00;95442.47;10425002;28;19912;-76
2021/11/24 12:19:33;;;;;;;;;;;;;;;6.10;100.00;95441.25;10425505;28;19927;-81
2021/11/24 12:24:40;;;;;;;;;;;;;;;6.02;100.00;95447.72;10425687;28;19962;-75
2021/11/24 12:29:48;;;;;;;;;;;;;;;6.01;100.00;95443.41;10402434;28;19913;-73
2021/11/24 12:34:50;;;;;;;;;;;;;;;5.93;100.00;95433.03;10384923;28;20004;-80
2021/11/24 12:39:50;;;;;;;;;;;;;;;5.79;100.00;95435.06;10383028;28;20418;-75
2021/11/24 12:44:51;;;;;;;;;;;;;;;5.92;100.00;95437.56;10384329;28;20004;-75
2021/11/24 12:50:02;;;;;;;;;;;;;;;6.04;100.00;95434.16;10368220;28;19913;-81
2021/11/24 12:55:06;;;;;;;;;;;;;;;5.83;100.00;95430.91;10412724;28;19924;-78
2021/11/24 13:00:22;;;;;;;;;;;;;;;5.67;100.00;95431.56;10432461;28;19929;-75
2021/11/24 13:05:22;;;;;;;;;;;;;;;5.82;100.00;95430.09;10432512;28;19925;-74
2021/11/24 13:10:24;;;;;;;;;;;;;;;5.74;100.00;95422.41;10432756;28;19913;-76
2021/11/24 13:15:24;;;;;;;;;;;;;;;5.60;100.00;95424.44;10432259;28;19912;-76
2021/11/24 13:20:30;;;;;;;;;;;;;;;5.54;100.00;95419.19;10450119;28;19916;-74
2021/11/24 13:25:35;;;;;;;;;;;;;;;5.48;100.00;95423.56;10416654;28;19921;-77
2021/11/24 13:30:39;;;;;;;;;;;;;;;5.68;100.00;95426.00;10428893;28;19920;-74
2021/11/24 13:35:51;;;;;;;;;;;;;;;5.69;100.00;95424.94;10449573;28;19920;-78
2021/11/24 13:40:53;;;;;;;;;;;;;;;5.95;100.00;95428.28;10431542;28;20311;-79
2021/11/24 13:45:54;;;;;;;;;;;;;;;5.99;100.00;95429.50;10432229;28;19924;-76
2021/11/24 13:50:58;;;;;;;;;;;;;;;5.95;100.00;95423.75;10414420;28;19935;-77
2021/11/24 13:56:12;;;;;;;;;;;;;;;5.95;100.00;95426.44;10410688;28;19913;-74
2021/11/24 14:01:14;;;;;;;;;;;;;;;5.87;100.00;95432.06;10405962;28;19925;-79
2021/11/24 14:06:50;;;;;;;;;;;;;;;5.85;100.00;95434.19;10406135;28;20024;-76
2021/11/24 14:11:53;;;;;;;;;;;;;;;5.72;100.00;95437.00;10309037;28;20204;-75
2021/11/24 14:16:57;;;;;;;;;;;;;;;5.74;100.00;95438.41;10389114;28;19913;-75
2021/11/24 14:21:58;;;;;;;;;;;;;;;5.64;100.00;95436.28;10406448;28;19971;-74
2021/11/24 14:26:59;;;;;;;;;;;;;;;5.76;100.00;95440.84;10404470;28;20300;-80
2021/11/24 14:32:01;;;;;;;;;;;;;;;5.54;100.00;95446.66;10408457;28;19913;-77
2021/11/24 14:37:02;;;;;;;;;;;;;;;5.63;100.00;95442.63;10420099;28;19920;-80
2021/11/24 14:42:05;;;;;;;;;;;;;;;5.56;100.00;95435.78;10430103;28;19921;-81
2021/11/24 14:47:06;;;;;;;;;;;;;;;5.55;100.00;95434.94;10446274;28;19913;-76
2021/11/24 14:52:06;;;;;;;;;;;;;;;5.50;100.00;95437.50;10447149;28;19917;-82
2021/11/24 14:57:07;;;;;;;;;;;;;;;5.50;100.00;95437.50;10447990;28;19920;-74
2021/11/24 15:02:08;;;;;;;;;;;;;;;5.50;100.00;95434.00;10427966;28;19925;-77
2021/11/24 15:07:10;;;;;;;;;;;;;;;5.28;100.00;95439.78;10427002;28;19917;-77
2021/11/24 15:12:11;;;;;;;;;;;;;;;5.19;100.00;95454.44;10445980;28;19956;-75
2021/11/24 15:17:11;;;;;;;;;;;;;;;5.21;100.00;95450.50;10445789;28;20007;-76
2021/11/24 15:22:12;;;;;;;;;;;;;;;5.23;100.00;95443.13;10426076;28;20358;-75
2021/11/24 15:27:13;;;;;;;;;;;;;;;5.09;100.00;95433.63;10486671;22;19924;-76
2021/11/24 15:32:13;;;;;;;;;;;;;;;4.98;100.00;95437.81;10484661;28;19913;-81
2021/11/24 15:37:14;;;;;;;;;;;;;;;4.95;100.00;95441.78;10484316;28;20376;-77
2021/11/24 15:42:14;;;;;;;;;;;;;;;5.08;100.00;95445.31;10484076;28;20297;-75
2021/11/24 15:47:15;;;;;;;;;;;;;;;5.06;100.00;95434.88;10458897;28;19913;-79
2021/11/24 15:52:15;;;;;;;;;;;;;;;5.04;100.00;95439.63;10459710;28;19913;-73
2021/11/24 15:57:15;;;;;;;;;;;;;;;4.90;100.00;95430.94;10444589;28;19913;-74
2021/11/24 16:02:18;;;;;;;;;;;;;;;4.73;100.00;95429.88;10473030;28;19939;-75
2021/11/24 16:07:18;;;;;;;;;;;;;;;4.42;100.00;95431.56;10484021;28;20396;-77
2021/11/24 16:12:18;;;;;;;;;;;;;;;4.39;100.00;95435.47;10479557;28;19912;-76
2021/11/24 16:17:19;;;;;;;;;;;;;;;4.39;100.00;95437.34;10478146;28;20378;-79
2021/11/24 16:22:19;;;;;;;;;;;;;;;4.41;100.00;95440.59;10476756;28;20346;-76
2021/11/24 16:27:21;;;;;;;;;;;;;;;4.47;100.00;95437.06;10499044;28;19928;-75
2021/11/24 16:32:21;;;;;;;;;;;;;;;4.30;100.00;95443.94;10478923;28;19959;-78
2021/11/24 16:37:22;;;;;;;;;;;;;;;4.40;100.00;95452.28;10471510;28;20007;-75
2021/11/24 16:42:22;;;;;;;;;;;;;;;4.26;100.00;95451.56;10485075;28;20002;-74
2021/11/24 16:47:25;;;;;;;;;;;;;;;4.35;100.00;95457.44;10493814;28;19923;-78
2021/11/24 16:52:27;;;;;;;;;;;;;;;4.31;100.00;95459.69;10445439;28;19924;-75
2021/11/24 16:57:30;;;;;;;;;;;;;;;4.30;100.00;95451.94;10500729;28;19912;-79
2021/11/24 17:02:32;;;;;;;;;;;;;;;4.30;100.00;95451.94;10541524;28;19931;-77
2021/11/24 17:07:33;;;;;;;;;;;;;;;4.36;100.00;95448.41;10530221;28;19916;-76
2021/11/24 17:12:33;;;;;;;;;;;;;;;4.41;100.00;95441.41;10537700;28;20257;-80
2021/11/24 17:17:34;;;;;;;;;;;;;;;4.50;100.00;95444.63;10486613;28;19973;-80
2021/11/24 17:22:35;;;;;;;;;;;;;;;4.59;100.00;95438.00;10482675;28;20342;-75
2021/11/24 17:27:36;;;;;;;;;;;;;;;4.69;100.00;95434.00;10472430;28;19947;-76
2021/11/24 17:32:40;;;;;;;;;;;;;;;4.75;100.00;95439.28;10459224;28;20378;-79
2021/11/24 17:37:41;;;;;;;;;;;;;;;4.72;100.00;95441.59;10468414;28;20313;-79
2021/11/24 17:42:41;;;;;;;;;;;;;;;4.76;100.00;95438.25;10459426;28;19951;-78
2021/11/24 17:47:42;;;;;;;;;;;;;;;4.84;100.00;95431.81;10447286;28;19982;-74
2021/11/24 17:52:42;;;;;;;;;;;;;;;4.83;100.00;95427.53;10496087;28;19917;-72
2021/11/24 17:57:43;;;;;;;;;;;;;;;4.95;100.00;95436.44;10463054;28;19913;-76
2021/11/24 18:02:43;;;;;;;;;;;;;;;4.82;100.00;95431.22;10459388;28;19916;-76
2021/11/24 18:07:43;;;;;;;;;;;;;;;4.64;100.00;95420.56;10488174;28;19970;-75
2021/11/24 18:12:45;;;;;;;;;;;;;;;4.76;100.00;95418.81;10488164;28;20378;-79
2021/11/24 18:17:46;;;;;;;;;;;;;;;4.77;100.00;95429.25;10503947;28;19954;-80
2021/11/24 18:22:48;;;;;;;;;;;;;;;4.82;100.00;95419.78;10505464;28;19947;-75
2021/11/24 18:27:48;;;;;;;;;;;;;;;4.69;100.00;95410.88;10487761;28;20451;-79
2021/11/24 18:32:49;;;;;;;;;;;;;;;4.68;100.00;95411.09;10486483;28;19954;-80
2021/11/24 18:37:50;;;;;;;;;;;;;;;4.70;100.00;95409.84;10471231;28;19931;-79
2021/11/24 18:42:51;;;;;;;;;;;;;;;4.64;100.00;95418.69;10474701;28;19920;-73
2021/11/24 18:47:53;;;;;;;;;;;;;;;4.57;100.00;95415.28;10462205;28;20342;-79
2021/11/24 18:52:53;;;;;;;;;;;;;;;4.42;100.00;95411.13;10485335;28;20428;-77
2021/11/24 18:57:54;;;;;;;;;;;;;;;4.23;100.00;95396.94;10462630;28;19919;-80
2021/11/24 19:02:54;;;;;;;;;;;;;;;4.42;100.00;95407.63;10444151;28;20302;-73
2021/11/24 19:07:54;;;;;;;;;;;;;;;4.50;100.00;95402.03;10464547;28;20223;-75
2021/11/24 19:12:55;;;;;;;;;;;;;;;4.64;100.00;95396.59;10461432;28;19912;-74
2021/11/24 19:17:55;;;;;;;;;;;;;;;4.62;100.00;95392.28;10459831;28;19920;-75
2021/11/24 19:22:56;;;;;;;;;;;;;;;4.57;100.00;95400.13;10453417;28;19965;-77
2021/11/24 19:27:56;;;;;;;;;;;;;;;4.66;100.00;95390.03;10445029;28;19925;-81
2021/11/24 19:32:56;;;;;;;;;;;;;;;4.71;100.00;95398.16;10444868;28;19912;-74
2021/11/24 19:37:57;;;;;;;;;;;;;;;4.73;100.00;95400.59;10444450;28;20000;-74
2021/11/24 19:42:58;;;;;;;;;;;;;;;4.66;100.00;95398.00;10442907;28;19921;-76
2021/11/24 19:47:59;;;;;;;;;;;;;;;4.59;100.00;95395.41;10441265;28;19914;-73
2021/11/24 19:52:59;;;;;;;;;;;;;;;4.35;100.00;95396.22;10443556;28;19931;-79
2021/11/24 19:58:03;;;;;;;;;;;;;;;4.29;100.00;95397.91;10443689;28;20337;-75
2021/11/24 20:03:05;;;;;;;;;;;;;;;4.22;100.00;95395.28;10442805;28;19986;-79
2021/11/24 20:08:07;;;;;;;;;;;;;;;4.10;100.00;95384.56;10459511;28;19913;-75
2021/11/24 20:13:08;;;;;;;;;;;;;;;4.20;100.00;95388.56;10462422;28;19913;-76
2021/11/24 20:18:08;;;;;;;;;;;;;;;4.09;100.00;95396.22;10458142;28;19912;-77
2021/11/24 20:23:10;;;;;;;;;;;;;;;4.03;100.00;95386.44;10458930;28;19916;-78
2021/11/24 20:28:19;;;;;;;;;;;;;;;4.05;100.00;95387.03;10458395;28;20532;-82
2021/11/24 20:33:20;;;;;;;;;;;;;;;4.04;100.00;95389.91;10448258;28;19933;-79
2021/11/24 20:38:20;;;;;;;;;;;;;;;3.92;100.00;95385.28;10458144;28;19953;-78
2021/11/24 20:43:21;;;;;;;;;;;;;;;4.02;100.00;95386.63;10482343;28;19916;-79
2021/11/24 20:48:21;;;;;;;;;;;;;;;4.06;100.00;95380.69;10444012;28;20003;-80
2021/11/24 20:53:22;;;;;;;;;;;;;;;4.07;100.00;95392.94;10447414;28;20310;-80
2021/11/24 20:58:25;;;;;;;;;;;;;;;4.19;100.00;95379.78;10458600;28;19913;-76
2021/11/24 21:03:26;;;;;;;;;;;;;;;4.21;100.00;95385.66;10442847;28;20369;-77
2021/11/24 21:08:26;;;;;;;;;;;;;;;4.16;100.00;95385.53;10457995;28;19916;-80
2021/11/24 21:13:26;;;;;;;;;;;;;;;4.17;100.00;95381.00;10460647;28;19912;-79
2021/11/24 21:18:27;;;;;;;;;;;;;;;4.26;100.00;95379.72;10450326;28;19913;-75
2021/11/24 21:23:29;;;;;;;;;;;;;;;4.33;100.00;95377.00;10450027;28;20345;-80
2021/11/24 21:28:32;;;;;;;;;;;;;;;4.24;100.00;95371.13;10487831;28;19925;-81
2021/11/24 21:33:32;;;;;;;;;;;;;;;4.27;100.00;95376.03;10490657;28;20429;-75
2021/11/24 21:38:32;;;;;;;;;;;;;;;4.35;100.00;95366.94;10490305;28;20007;-82
2021/11/24 21:43:33;;;;;;;;;;;;;;;4.34;100.00;95365.31;10490465;28;19962;-81
2021/11/24 21:48:34;;;;;;;;;;;;;;;4.30;100.00;95366.78;10490104;28;20346;-77
2021/11/24 21:53:34;;;;;;;;;;;;;;;4.24;100.00;95360.50;10489193;28;19975;-77
2021/11/24 21:58:34;;;;;;;;;;;;;;;4.25;100.00;95365.59;10488948;28;19919;-75
2021/11/24 22:03:35;;;;;;;;;;;;;;;4.26;100.00;95367.22;10489737;28;19912;-75
2021/11/24 22:13:54;;;;;;;;;;;;;;;4.37;100.00;95360.38;10491047;28;19912;-78
2021/11/24 22:18:55;;;;;;;;;;;;;;;4.36;100.00;95360.59;10488590;28;19912;-76
2021/11/24 22:23:55;;;;;;;;;;;;;;;4.44;100.00;95355.00;10463960;28;19929;-80
2021/11/24 22:28:57;;;;;;;;;;;;;;;4.44;100.00;95355.81;10476059;28;19942;-77
2021/11/24 22:33:58;;;;;;;;;;;;;;;4.57;100.00;95365.50;10489032;28;19913;-82
2021/11/24 22:38:59;;;;;;;;;;;;;;;4.58;100.00;95353.84;10471109;28;20484;-77
2021/11/24 22:43:59;;;;;;;;;;;;;;;4.57;100.00;95354.06;10463038;28;19917;-76
2021/11/24 22:49:00;;;;;;;;;;;;;;;4.65;100.00;95348.44;10463352;28;19920;-80
2021/11/24 22:54:00;;;;;;;;;;;;;;;4.67;100.00;95342.91;10463029;28;19924;-76
2021/11/24 22:59:01;;;;;;;;;;;;;;;4.58;100.00;95343.19;10462356;28;19917;-80
2021/11/24 23:04:02;;;;;;;;;;;;;;;4.62;100.00;95332.94;10486369;28;20069;-79
2021/11/24 23:09:02;;;;;;;;;;;;;;;4.59;100.00;95338.66;10488245;28;19916;-79
2021/11/24 23:14:03;;;;;;;;;;;;;;;4.62;100.00;95331.06;10486439;28;19923;-77
2021/11/24 23:19:03;;;;;;;;;;;;;;;4.66;100.00;95328.78;10486736;28;19912;-75
2021/11/24 23:24:04;;;;;;;;;;;;;;;4.65;100.00;95323.66;10487320;28;19944;-77
2021/11/24 23:29:04;;;;;;;;;;;;;;;4.53;100.00;95318.28;10487206;28;20007;-73
2021/11/24 23:34:04;;;;;;;;;;;;;;;4.49;100.00;95315.22;10485862;28;20004;-74
2021/11/24 23:39:05;;;;;;;;;;;;;;;4.42;100.00;95317.97;10485334;28;19916;-78
2021/11/24 23:44:05;;;;;;;;;;;;;;;4.38;100.00;95321.28;10487446;28;20405;-79
2021/11/24 23:49:06;;;;;;;;;;;;;;;4.33;100.00;95329.13;10484516;28;20336;-79
2021/11/24 23:54:06;;;;;;;;;;;;;;;4.33;100.00;95315.81;10486170;28;20403;-76
2021/11/24 23:59:07;;;;;;;;;;;;;;;4.32;100.00;95314.19;10485358;28;19920;-79
